createdAt,value
2023-02-15T00:03:13.144Z,16.43
2023-02-15T00:08:16.341Z,17.97
2023-02-15T00:13:18.073Z,19.70
2023-02-15T00:18:23.320Z,16.63
2023-02-15T00:23:35.066Z,19.20
2023-02-15T00:28:39.575Z,15.37
2023-02-15T00:33:41.869Z,15.80
2023-02-15T00:38:45.468Z,21.07
2023-02-15T00:43:47.246Z,16.07
2023-02-15T00:48:49.173Z,22.70
2023-02-15T00:59:10.115Z,18.27
2023-02-15T01:04:19.163Z,19.70
2023-02-15T01:09:22.574Z,15.73
2023-02-15T01:14:24.809Z,18.80
2023-02-15T01:19:29.991Z,17.93
2023-02-15T01:24:33.728Z,13.70
2023-02-15T01:29:35.510Z,16.60
2023-02-15T01:34:38.259Z,14.90
2023-02-15T01:39:41.764Z,19.10
2023-02-15T01:44:57.748Z,20.23
2023-02-15T01:50:15.596Z,27.87
2023-02-15T01:55:20.210Z,16.30
2023-02-15T02:00:37.757Z,19.47
2023-02-15T02:05:46.772Z,18.47
2023-02-15T02:11:15.023Z,17.43
2023-02-15T02:16:24.538Z,17.60
2023-02-15T02:21:52.293Z,21.20
2023-02-15T02:27:42.403Z,18.47
2023-02-15T02:33:21.716Z,19.87
2023-02-15T02:38:34.047Z,25.33
2023-02-15T02:43:44.813Z,18.43
2023-02-15T02:48:50.241Z,20.03
2023-02-15T02:54:00.513Z,19.47
2023-02-15T02:59:08.282Z,23.03
2023-02-15T03:04:16.572Z,19.53
2023-02-15T03:09:26.089Z,20.83
2023-02-15T03:14:29.333Z,23.30
2023-02-15T03:19:37.845Z,19.57
2023-02-15T03:24:45.242Z,18.00
2023-02-15T03:29:51.373Z,18.33
2023-02-15T03:34:55.306Z,20.33
2023-02-15T03:40:02.138Z,17.80
2023-02-15T03:45:10.668Z,10.20
2023-02-15T03:50:19.143Z,22.40
2023-02-15T03:55:21.610Z,14.97
2023-02-15T04:00:26.157Z,14.47
2023-02-15T04:05:29.670Z,13.90
2023-02-15T04:10:31.816Z,13.03
2023-02-15T04:15:33.926Z,16.57
2023-02-15T04:20:37.461Z,12.50
2023-02-15T04:25:39.575Z,14.37
2023-02-15T04:30:42.031Z,13.97
2023-02-15T04:35:45.938Z,15.00
2023-02-15T04:40:51.252Z,17.97
2023-02-15T04:45:53.242Z,17.47
2023-02-15T04:50:56.993Z,18.87
2023-02-15T04:55:59.163Z,25.10
2023-02-15T05:01:01.663Z,30.53
2023-02-15T05:06:05.544Z,42.80
2023-02-15T05:11:07.666Z,38.27
2023-02-15T05:16:09.559Z,60.17
2023-02-15T05:21:13.188Z,46.03
2023-02-15T05:26:18.773Z,41.30
2023-02-15T05:31:21.572Z,40.20
2023-02-15T05:36:24.922Z,34.27
2023-02-15T05:41:27.504Z,35.67
2023-02-15T05:46:29.673Z,33.67
2023-02-15T05:51:33.441Z,65.17
2023-02-15T05:56:35.943Z,39.20
2023-02-15T06:01:37.830Z,34.07
2023-02-15T06:06:41.271Z,34.70
2023-02-15T06:11:43.908Z,32.80
2023-02-15T06:16:45.764Z,36.10
2023-02-15T06:21:49.708Z,42.90
2023-02-15T06:26:51.841Z,29.93
2023-02-15T06:31:54.309Z,36.73
2023-02-15T06:36:58.214Z,33.13
2023-02-15T06:42:00.482Z,45.93
2023-02-15T06:47:02.998Z,70.33
2023-02-15T06:52:07.383Z,35.17
2023-02-15T06:57:09.426Z,21.27
2023-02-15T07:02:14.725Z,43.33
2023-02-15T07:07:18.047Z,35.43
2023-02-15T07:12:20.277Z,47.83
2023-02-15T07:17:37.474Z,40.97
2023-02-15T07:22:41.127Z,35.20
2023-02-15T07:27:46.399Z,38.27
2023-02-15T07:32:48.539Z,67.07
2023-02-15T07:37:51.813Z,41.30
2023-02-15T07:42:54.110Z,46.27
2023-02-15T07:47:56.088Z,40.77
2023-02-15T07:52:59.730Z,47.47
2023-02-15T07:58:02.171Z,43.43
2023-02-15T08:03:04.815Z,39.23
2023-02-15T08:08:08.841Z,47.47
2023-02-15T08:13:10.724Z,63.27
2023-02-15T08:18:12.978Z,50.97
2023-02-15T08:23:16.704Z,36.87
2023-02-15T08:28:18.795Z,38.57
2023-02-15T08:33:20.878Z,49.23
2023-02-15T08:38:24.479Z,33.20
2023-02-15T08:43:26.272Z,45.90
2023-02-15T08:48:28.254Z,50.57
2023-02-15T08:53:31.830Z,49.70
2023-02-15T08:58:34.935Z,49.50
2023-02-15T09:03:37.247Z,46.73
2023-02-15T09:08:41.227Z,42.97
2023-02-15T09:13:44.086Z,51.00
2023-02-15T09:18:46.627Z,53.20
2023-02-15T09:23:51.667Z,63.47
2023-02-15T09:28:55.174Z,55.17
2023-02-15T09:33:57.630Z,58.30
2023-02-15T09:39:07.203Z,63.23
2023-02-15T09:44:22.063Z,51.90
2023-02-15T09:49:32.509Z,62.50
2023-02-15T09:54:49.881Z,56.23
2023-02-15T10:00:00.601Z,55.30
2023-02-15T10:05:16.797Z,51.73
2023-02-15T10:10:31.544Z,56.97
2023-02-15T10:15:54.417Z,47.93
2023-02-15T10:21:04.250Z,47.83
2023-02-15T10:26:17.843Z,43.80
2023-02-15T10:31:27.630Z,42.63
2023-02-15T10:36:44.630Z,36.53
2023-02-15T10:41:55.269Z,33.13
2023-02-15T10:47:18.498Z,29.10
2023-02-15T10:52:33.925Z,33.63
2023-02-15T10:57:45.742Z,29.33
2023-02-15T11:03:10.527Z,28.97
2023-02-15T11:08:13.875Z,32.40
2023-02-15T11:13:20.499Z,28.27
2023-02-15T11:18:29.284Z,23.67
2023-02-15T11:23:40.053Z,22.33
2023-02-15T11:28:48.512Z,22.70
2023-02-15T11:33:55.364Z,19.27
2023-02-15T11:39:02.028Z,19.70
2023-02-15T11:44:12.892Z,18.70
2023-02-15T11:49:24.704Z,19.30
2023-02-15T11:54:31.130Z,18.90
2023-02-15T11:59:38.593Z,18.63
2023-02-15T12:04:45.653Z,21.30
2023-02-15T12:09:53.191Z,18.30
2023-02-15T12:14:58.418Z,18.87
2023-02-15T12:20:03.604Z,19.27
2023-02-15T12:25:22.317Z,17.53
2023-02-15T12:36:03.580Z,14.63
2023-02-15T12:41:22.977Z,13.47
2023-02-15T12:46:27.524Z,10.80
2023-02-15T12:51:29.385Z,10.33
2023-02-15T12:56:31.246Z,11.17
2023-02-15T13:01:35.036Z,11.70
2023-02-15T13:06:37.969Z,10.03
2023-02-15T13:11:42.770Z,9.70
2023-02-15T13:16:48.581Z,9.30
2023-02-15T13:21:54.296Z,7.50
2023-02-15T13:27:14.665Z,8.60
2023-02-15T13:32:28.144Z,8.83
2023-02-15T13:37:51.904Z,7.37
2023-02-15T13:42:58.196Z,8.90
2023-02-15T13:48:12.835Z,7.67
2023-02-15T13:53:36.259Z,7.27
2023-02-15T13:59:00.025Z,6.37
2023-02-15T14:04:25.550Z,7.47
2023-02-15T14:09:41.867Z,10.93
2023-02-15T14:15:09.978Z,9.43
2023-02-15T14:20:21.408Z,8.17
2023-02-15T14:25:31.506Z,8.80
2023-02-15T14:30:38.005Z,8.50
2023-02-15T14:35:42.527Z,8.00
2023-02-15T14:40:54.789Z,7.60
2023-02-15T14:46:03.960Z,10.00
2023-02-15T14:51:07.658Z,13.47
2023-02-15T14:56:22.718Z,8.27
2023-02-15T15:01:28.879Z,8.60
2023-02-15T15:06:34.718Z,10.90
2023-02-15T15:11:44.838Z,7.67
2023-02-15T15:16:52.538Z,8.00
2023-02-15T15:22:04.573Z,9.97
2023-02-15T15:27:42.602Z,7.33
2023-02-15T15:32:52.160Z,11.40
2023-02-15T15:38:17.439Z,10.77
2023-02-15T15:43:59.633Z,7.67
2023-02-15T15:49:04.318Z,9.13
2023-02-15T15:54:15.013Z,8.33
2023-02-15T15:59:22.730Z,9.77
2023-02-15T16:04:27.570Z,6.87
2023-02-15T16:09:31.484Z,8.47
2023-02-15T16:14:37.215Z,7.73
2023-02-15T16:19:41.374Z,8.37
2023-02-15T16:25:14.030Z,10.83
2023-02-15T16:30:23.348Z,7.60
2023-02-15T16:35:55.632Z,7.33
2023-02-15T16:40:59.453Z,7.67
2023-02-15T16:46:05.883Z,8.30
2023-02-15T16:51:08.963Z,8.00
2023-02-15T16:56:12.473Z,10.70
2023-02-15T17:01:16.515Z,6.57
2023-02-15T17:06:23.585Z,8.33
2023-02-15T17:11:36.422Z,7.43
2023-02-15T17:16:51.335Z,9.13
2023-02-15T17:21:56.452Z,8.07
2023-02-15T17:27:04.889Z,7.83
2023-02-15T17:32:16.511Z,7.53
2023-02-15T17:37:30.016Z,8.87
2023-02-15T17:42:33.584Z,8.90
2023-02-15T17:47:36.054Z,11.47
2023-02-15T17:53:02.951Z,9.67
2023-02-15T17:58:22.346Z,7.77
2023-02-15T18:03:25.942Z,10.13
2023-02-15T18:08:28.879Z,7.87
2023-02-15T18:13:32.545Z,8.03
2023-02-15T18:18:34.694Z,12.87
2023-02-15T18:23:37.052Z,9.53
2023-02-15T18:34:26.942Z,8.97
2023-02-15T18:39:37.488Z,8.27
2023-02-15T18:44:42.267Z,12.87
2023-02-15T18:49:52.553Z,10.87
2023-02-15T18:55:04.850Z,11.60
2023-02-15T19:00:14.319Z,8.80
2023-02-15T19:05:16.896Z,10.67
2023-02-15T19:10:21.176Z,10.37
2023-02-15T19:15:26.269Z,12.13
2023-02-15T19:20:39.188Z,15.63
2023-02-15T19:25:42.518Z,17.43
2023-02-15T19:30:46.762Z,17.13
2023-02-15T19:35:56.413Z,16.50
2023-02-15T19:41:03.602Z,11.60
2023-02-15T19:46:15.251Z,13.07
2023-02-15T19:51:19.147Z,16.90
2023-02-15T19:56:23.717Z,15.73
2023-02-15T20:01:28.533Z,14.50
2023-02-15T20:06:31.116Z,13.63
2023-02-15T20:11:37.209Z,11.40
2023-02-15T20:16:42.077Z,20.60
2023-02-15T20:21:46.978Z,16.60
2023-02-15T20:26:49.957Z,18.77
2023-02-15T20:31:55.444Z,15.23
2023-02-15T20:36:58.083Z,15.17
2023-02-15T20:42:00.496Z,12.87
2023-02-15T20:47:04.546Z,12.77
2023-02-15T20:52:18.493Z,14.43
2023-02-15T20:57:21.309Z,13.77
2023-02-15T21:02:25.550Z,10.77
2023-02-15T21:07:28.153Z,13.30
2023-02-15T21:12:30.908Z,12.53
2023-02-15T21:17:34.986Z,12.90
2023-02-15T21:22:37.585Z,12.93
2023-02-15T21:27:40.141Z,14.60
2023-02-15T21:32:43.857Z,14.53
2023-02-15T21:37:48.533Z,14.93
2023-02-15T21:42:50.632Z,11.83
2023-02-15T21:47:53.792Z,15.87
2023-02-15T21:52:56.797Z,17.57
2023-02-15T21:57:58.927Z,14.40
2023-02-15T22:03:02.918Z,13.37
2023-02-15T22:08:11.422Z,14.57
2023-02-15T22:13:15.872Z,14.80
2023-02-15T22:18:22.280Z,17.20
2023-02-15T22:23:24.437Z,22.70
2023-02-15T22:28:31.996Z,21.97
2023-02-15T22:33:35.684Z,15.93
2023-02-15T22:38:38.046Z,12.67
2023-02-15T22:43:42.074Z,15.10
2023-02-15T22:48:47.151Z,19.83
2023-02-15T22:53:49.049Z,14.30
2023-02-15T22:58:50.858Z,14.70
2023-02-15T23:03:54.712Z,14.13
2023-02-15T23:08:56.940Z,17.70
2023-02-15T23:13:58.783Z,13.13
2023-02-15T23:19:02.910Z,12.00
2023-02-15T23:24:17.698Z,15.60
2023-02-15T23:29:21.942Z,11.83
2023-02-15T23:34:27.734Z,12.77
2023-02-15T23:39:30.080Z,15.37
2023-02-15T23:44:32.743Z,14.50
2023-02-15T23:49:36.182Z,17.07
2023-02-15T23:54:38.448Z,15.27
2023-02-15T23:59:44.269Z,15.23
